Etusivu
METAR-TAF:

METAR-TAF

Lentoasemat :

Šarm al-Šaikh, Egypti

Leveyspiiri: 27-58N, Pituuspiiri: 034-23E, korkeus merenpinnasta: 50 m

Tämänhetkinen sää

Tämä raportti tehtiin 1 tunti ja 57 minuuttia sitten, kello 23.00 UTC
Tuuli 6 kn lännestä
Lämpötila 14°C
Kosteus 36%
Ilmanpaine 1019 hPa
Näkyvyys 10 km tai enemmän
ei pilviä alle 1500 m:ssä eikä cumulonimbus-pilviä

METAR: HESH 072300Z 27006KT CAVOK 14/M01 Q1019 NOSIG

Aika: 02:57 (00:57 UTC)

Sääennuste

Tämä raportti tehtiin 1 tunti ja 57 minuuttia sitten, kello 23.00 UTC
Ennuste voimassa 08. päivästä klo 00 UTC - 09. päivään klo 06 UTC
Tuuli 11 kn lännestä/luoteesta
Näkyvyys 10 km tai enemmän
ei pilviä alle 1500 m:ssä eikä cumulonimbus-pilviä

TAF: HESH 072300Z 0800/0906 30011KT CAVOK

Säähavainnot ja -ennusteet yli 4000 lentoasemalta (METAR- ja TAF-raportit).

Käytössä olevat sääasemat on merkitty karttaan keltaisilla ja punaisilla pisteillä.

Aseta hiiri pisteen päälle nähdäksesi sääaseman nimen.

Klikkaa sitten nähdäksesi säähavainnot ja -ennusteet.

Kartan vaihtaminen: klikkaa mustalla rastilla varustettuja vihreitä pisteitä, niin voit zoomata sisään; viivalla varustettua vihreää pistettä, niin voit zoomata ulos tai vihreitä nuolia, niin pääset viereisille kartoille.


METAR-TAF: